sensor_id;sensor_type;location;lat;lon;timestamp;P1;durP1;ratioP1;P2;durP2;ratioP2
59728;SDS011;45588;51.598;5.618;2023-04-28T00:01:29;13.68;;;7.90;;
59728;SDS011;45588;51.598;5.618;2023-04-28T00:03:55;18.15;;;8.63;;
59728;SDS011;45588;51.598;5.618;2023-04-28T00:06:21;11.98;;;7.53;;
59728;SDS011;45588;51.598;5.618;2023-04-28T00:08:46;12.37;;;7.20;;
59728;SDS011;45588;51.598;5.618;2023-04-28T00:11:11;17.20;;;7.50;;
59728;SDS011;45588;51.598;5.618;2023-04-28T00:13:37;16.63;;;14.93;;
59728;SDS011;45588;51.598;5.618;2023-04-28T00:16:02;21.85;;;8.65;;
59728;SDS011;45588;51.598;5.618;2023-04-28T00:18:27;13.88;;;8.52;;
59728;SDS011;45588;51.598;5.618;2023-04-28T00:20:53;12.23;;;8.30;;
59728;SDS011;45588;51.598;5.618;2023-04-28T00:23:19;12.35;;;7.93;;
59728;SDS011;45588;51.598;5.618;2023-04-28T00:25:44;18.13;;;15.45;;
59728;SDS011;45588;51.598;5.618;2023-04-28T00:28:14;15.75;;;8.60;;
59728;SDS011;45588;51.598;5.618;2023-04-28T00:30:39;13.85;;;7.57;;
59728;SDS011;45588;51.598;5.618;2023-04-28T00:33:04;14.27;;;8.50;;
59728;SDS011;45588;51.598;5.618;2023-04-28T00:35:30;14.48;;;8.07;;
59728;SDS011;45588;51.598;5.618;2023-04-28T00:37:55;14.55;;;8.55;;
59728;SDS011;45588;51.598;5.618;2023-04-28T00:40:20;15.27;;;8.10;;
59728;SDS011;45588;51.598;5.618;2023-04-28T00:42:46;18.38;;;7.97;;
59728;SDS011;45588;51.598;5.618;2023-04-28T00:45:11;15.00;;;8.65;;
59728;SDS011;45588;51.598;5.618;2023-04-28T00:47:36;11.63;;;7.60;;
59728;SDS011;45588;51.598;5.618;2023-04-28T00:50:01;12.43;;;8.35;;
59728;SDS011;45588;51.598;5.618;2023-04-28T00:52:27;23.85;;;17.40;;
59728;SDS011;45588;51.598;5.618;2023-04-28T00:54:53;14.88;;;8.50;;
59728;SDS011;45588;51.598;5.618;2023-04-28T00:57:19;15.23;;;8.55;;
59728;SDS011;45588;51.598;5.618;2023-04-28T00:59:44;14.68;;;8.48;;
59728;SDS011;45588;51.598;5.618;2023-04-28T01:02:09;19.45;;;17.27;;
59728;SDS011;45588;51.598;5.618;2023-04-28T01:07:06;19.95;;;9.77;;
59728;SDS011;45588;51.598;5.618;2023-04-28T01:09:31;13.45;;;8.35;;
59728;SDS011;45588;51.598;5.618;2023-04-28T01:11:56;16.85;;;9.23;;
59728;SDS011;45588;51.598;5.618;2023-04-28T01:14:22;18.83;;;9.57;;
59728;SDS011;45588;51.598;5.618;2023-04-28T01:16:47;18.33;;;8.60;;
59728;SDS011;45588;51.598;5.618;2023-04-28T01:19:19;17.90;;;9.25;;
59728;SDS011;45588;51.598;5.618;2023-04-28T01:21:46;17.83;;;9.15;;
59728;SDS011;45588;51.598;5.618;2023-04-28T01:24:11;16.85;;;9.60;;
59728;SDS011;45588;51.598;5.618;2023-04-28T01:26:36;16.40;;;9.93;;
59728;SDS011;45588;51.598;5.618;2023-04-28T01:29:01;17.10;;;9.00;;
59728;SDS011;45588;51.598;5.618;2023-04-28T01:31:27;20.63;;;9.93;;
59728;SDS011;45588;51.598;5.618;2023-04-28T01:33:52;16.98;;;9.10;;
59728;SDS011;45588;51.598;5.618;2023-04-28T01:36:17;19.47;;;9.03;;
59728;SDS011;45588;51.598;5.618;2023-04-28T01:38:42;15.52;;;8.88;;
59728;SDS011;45588;51.598;5.618;2023-04-28T01:41:07;15.75;;;9.73;;
59728;SDS011;45588;51.598;5.618;2023-04-28T01:43:33;20.67;;;10.60;;
59728;SDS011;45588;51.598;5.618;2023-04-28T01:45:58;17.73;;;10.52;;
59728;SDS011;45588;51.598;5.618;2023-04-28T01:48:23;19.35;;;10.85;;
59728;SDS011;45588;51.598;5.618;2023-04-28T01:50:48;20.43;;;17.67;;
59728;SDS011;45588;51.598;5.618;2023-04-28T01:53:13;22.70;;;12.80;;
59728;SDS011;45588;51.598;5.618;2023-04-28T01:55:38;17.23;;;9.20;;
59728;SDS011;45588;51.598;5.618;2023-04-28T01:58:04;23.33;;;20.75;;
59728;SDS011;45588;51.598;5.618;2023-04-28T02:00:29;21.03;;;10.27;;
59728;SDS011;45588;51.598;5.618;2023-04-28T02:02:54;18.30;;;9.05;;
59728;SDS011;45588;51.598;5.618;2023-04-28T02:05:20;16.17;;;9.30;;
59728;SDS011;45588;51.598;5.618;2023-04-28T02:07:45;19.83;;;9.82;;
59728;SDS011;45588;51.598;5.618;2023-04-28T02:10:10;19.23;;;9.77;;
59728;SDS011;45588;51.598;5.618;2023-04-28T02:12:35;15.60;;;9.15;;
59728;SDS011;45588;51.598;5.618;2023-04-28T02:15:01;19.05;;;9.07;;
59728;SDS011;45588;51.598;5.618;2023-04-28T02:17:28;21.17;;;8.90;;
59728;SDS011;45588;51.598;5.618;2023-04-28T02:19:56;19.70;;;10.60;;
59728;SDS011;45588;51.598;5.618;2023-04-28T02:22:22;19.00;;;9.35;;
59728;SDS011;45588;51.598;5.618;2023-04-28T02:24:47;15.65;;;9.35;;
59728;SDS011;45588;51.598;5.618;2023-04-28T02:27:12;18.08;;;9.57;;
59728;SDS011;45588;51.598;5.618;2023-04-28T02:29:38;21.15;;;10.57;;
59728;SDS011;45588;51.598;5.618;2023-04-28T02:32:03;17.50;;;10.52;;
59728;SDS011;45588;51.598;5.618;2023-04-28T02:34:28;17.85;;;9.73;;
59728;SDS011;45588;51.598;5.618;2023-04-28T02:36:53;16.38;;;9.70;;
59728;SDS011;45588;51.598;5.618;2023-04-28T02:39:19;15.52;;;9.43;;
59728;SDS011;45588;51.598;5.618;2023-04-28T02:41:46;19.83;;;10.13;;
59728;SDS011;45588;51.598;5.618;2023-04-28T02:44:11;18.65;;;10.93;;
59728;SDS011;45588;51.598;5.618;2023-04-28T02:46:36;20.60;;;10.52;;
59728;SDS011;45588;51.598;5.618;2023-04-28T02:49:01;20.98;;;11.48;;
59728;SDS011;45588;51.598;5.618;2023-04-28T02:51:26;20.30;;;12.13;;
59728;SDS011;45588;51.598;5.618;2023-04-28T02:53:52;18.20;;;10.82;;
59728;SDS011;45588;51.598;5.618;2023-04-28T02:56:17;21.90;;;11.10;;
59728;SDS011;45588;51.598;5.618;2023-04-28T02:58:42;25.17;;;12.68;;
59728;SDS011;45588;51.598;5.618;2023-04-28T03:01:08;27.17;;;24.30;;
59728;SDS011;45588;51.598;5.618;2023-04-28T03:03:33;24.90;;;12.70;;
59728;SDS011;45588;51.598;5.618;2023-04-28T03:05:58;18.33;;;12.32;;
59728;SDS011;45588;51.598;5.618;2023-04-28T03:08:23;21.63;;;13.38;;
59728;SDS011;45588;51.598;5.618;2023-04-28T03:10:49;21.30;;;11.80;;
59728;SDS011;45588;51.598;5.618;2023-04-28T03:13:14;20.85;;;11.82;;
59728;SDS011;45588;51.598;5.618;2023-04-28T03:15:39;17.83;;;11.23;;
59728;SDS011;45588;51.598;5.618;2023-04-28T03:18:04;24.03;;;13.20;;
59728;SDS011;45588;51.598;5.618;2023-04-28T03:20:29;21.45;;;11.40;;
59728;SDS011;45588;51.598;5.618;2023-04-28T03:22:55;22.80;;;12.98;;
59728;SDS011;45588;51.598;5.618;2023-04-28T03:25:20;27.52;;;12.98;;
59728;SDS011;45588;51.598;5.618;2023-04-28T03:27:45;23.70;;;12.90;;
59728;SDS011;45588;51.598;5.618;2023-04-28T03:30:10;23.42;;;13.82;;
59728;SDS011;45588;51.598;5.618;2023-04-28T03:32:36;27.25;;;13.98;;
59728;SDS011;45588;51.598;5.618;2023-04-28T03:35:01;23.00;;;12.55;;
59728;SDS011;45588;51.598;5.618;2023-04-28T03:37:26;24.20;;;13.80;;
59728;SDS011;45588;51.598;5.618;2023-04-28T03:39:51;31.27;;;14.82;;
59728;SDS011;45588;51.598;5.618;2023-04-28T03:42:16;23.08;;;14.07;;
59728;SDS011;45588;51.598;5.618;2023-04-28T03:44:42;28.50;;;14.00;;
59728;SDS011;45588;51.598;5.618;2023-04-28T03:47:07;27.13;;;13.82;;
59728;SDS011;45588;51.598;5.618;2023-04-28T03:49:32;23.90;;;13.40;;
59728;SDS011;45588;51.598;5.618;2023-04-28T03:51:57;22.73;;;13.38;;
59728;SDS011;45588;51.598;5.618;2023-04-28T03:54:22;23.93;;;13.70;;
59728;SDS011;45588;51.598;5.618;2023-04-28T03:56:47;29.52;;;15.18;;
59728;SDS011;45588;51.598;5.618;2023-04-28T03:59:13;28.77;;;16.05;;
59728;SDS011;45588;51.598;5.618;2023-04-28T04:01:38;25.47;;;14.57;;
59728;SDS011;45588;51.598;5.618;2023-04-28T04:04:03;27.80;;;15.30;;
59728;SDS011;45588;51.598;5.618;2023-04-28T04:06:28;23.55;;;15.25;;
59728;SDS011;45588;51.598;5.618;2023-04-28T04:08:54;27.92;;;15.45;;
59728;SDS011;45588;51.598;5.618;2023-04-28T04:11:19;32.55;;;15.77;;
59728;SDS011;45588;51.598;5.618;2023-04-28T04:13:44;32.63;;;29.02;;
59728;SDS011;45588;51.598;5.618;2023-04-28T04:16:10;28.33;;;16.02;;
59728;SDS011;45588;51.598;5.618;2023-04-28T04:18:35;24.75;;;15.23;;
59728;SDS011;45588;51.598;5.618;2023-04-28T04:21:00;27.20;;;15.87;;
59728;SDS011;45588;51.598;5.618;2023-04-28T04:23:25;25.67;;;15.35;;
59728;SDS011;45588;51.598;5.618;2023-04-28T04:25:51;29.73;;;16.00;;
59728;SDS011;45588;51.598;5.618;2023-04-28T04:28:16;30.80;;;15.87;;
59728;SDS011;45588;51.598;5.618;2023-04-28T04:30:41;23.88;;;14.93;;
59728;SDS011;45588;51.598;5.618;2023-04-28T04:33:06;28.70;;;15.85;;
59728;SDS011;45588;51.598;5.618;2023-04-28T04:35:32;30.63;;;17.23;;
59728;SDS011;45588;51.598;5.618;2023-04-28T04:37:57;26.30;;;15.07;;
59728;SDS011;45588;51.598;5.618;2023-04-28T04:40:22;26.27;;;15.37;;
59728;SDS011;45588;51.598;5.618;2023-04-28T04:42:47;26.35;;;16.65;;
59728;SDS011;45588;51.598;5.618;2023-04-28T04:45:13;29.55;;;16.02;;
59728;SDS011;45588;51.598;5.618;2023-04-28T04:47:38;26.50;;;16.50;;
59728;SDS011;45588;51.598;5.618;2023-04-28T04:50:04;29.63;;;16.77;;
59728;SDS011;45588;51.598;5.618;2023-04-28T04:52:30;25.50;;;15.70;;
59728;SDS011;45588;51.598;5.618;2023-04-28T04:54:55;29.73;;;16.90;;
59728;SDS011;45588;51.598;5.618;2023-04-28T04:57:20;37.53;;;31.98;;
59728;SDS011;45588;51.598;5.618;2023-04-28T04:59:45;29.80;;;17.48;;
59728;SDS011;45588;51.598;5.618;2023-04-28T05:02:11;36.03;;;31.95;;
59728;SDS011;45588;51.598;5.618;2023-04-28T05:04:36;26.75;;;16.08;;
59728;SDS011;45588;51.598;5.618;2023-04-28T05:07:04;33.55;;;18.35;;
59728;SDS011;45588;51.598;5.618;2023-04-28T05:09:29;28.55;;;18.08;;
59728;SDS011;45588;51.598;5.618;2023-04-28T05:11:55;29.63;;;17.67;;
59728;SDS011;45588;51.598;5.618;2023-04-28T05:14:21;29.27;;;17.20;;
59728;SDS011;45588;51.598;5.618;2023-04-28T05:16:46;35.40;;;16.75;;
59728;SDS011;45588;51.598;5.618;2023-04-28T05:19:12;27.55;;;17.40;;
59728;SDS011;45588;51.598;5.618;2023-04-28T05:21:37;29.17;;;18.27;;
59728;SDS011;45588;51.598;5.618;2023-04-28T05:24:02;29.67;;;16.88;;
59728;SDS011;45588;51.598;5.618;2023-04-28T05:26:27;36.20;;;31.10;;
59728;SDS011;45588;51.598;5.618;2023-04-28T05:28:53;24.73;;;15.90;;
59728;SDS011;45588;51.598;5.618;2023-04-28T05:31:18;26.98;;;17.92;;
59728;SDS011;45588;51.598;5.618;2023-04-28T05:33:43;24.08;;;16.67;;
59728;SDS011;45588;51.598;5.618;2023-04-28T05:36:08;32.60;;;17.92;;
59728;SDS011;45588;51.598;5.618;2023-04-28T05:38:33;36.50;;;32.22;;
59728;SDS011;45588;51.598;5.618;2023-04-28T05:41:00;29.23;;;16.83;;
59728;SDS011;45588;51.598;5.618;2023-04-28T05:43:25;34.33;;;30.70;;
59728;SDS011;45588;51.598;5.618;2023-04-28T05:45:50;34.67;;;30.92;;
59728;SDS011;45588;51.598;5.618;2023-04-28T05:48:16;26.88;;;16.15;;
59728;SDS011;45588;51.598;5.618;2023-04-28T05:50:41;38.38;;;18.50;;
59728;SDS011;45588;51.598;5.618;2023-04-28T05:53:06;28.48;;;17.30;;
59728;SDS011;45588;51.598;5.618;2023-04-28T05:55:31;30.15;;;16.63;;
59728;SDS011;45588;51.598;5.618;2023-04-28T05:57:58;31.05;;;17.83;;
59728;SDS011;45588;51.598;5.618;2023-04-28T06:00:23;33.72;;;30.08;;
59728;SDS011;45588;51.598;5.618;2023-04-28T06:02:49;24.00;;;16.60;;
59728;SDS011;45588;51.598;5.618;2023-04-28T06:05:14;29.20;;;17.57;;
59728;SDS011;45588;51.598;5.618;2023-04-28T06:07:39;30.15;;;16.65;;
59728;SDS011;45588;51.598;5.618;2023-04-28T06:10:04;35.93;;;28.83;;
59728;SDS011;45588;51.598;5.618;2023-04-28T06:12:30;26.70;;;15.93;;
59728;SDS011;45588;51.598;5.618;2023-04-28T06:14:55;27.10;;;16.38;;
59728;SDS011;45588;51.598;5.618;2023-04-28T06:17:21;31.30;;;27.85;;
59728;SDS011;45588;51.598;5.618;2023-04-28T06:19:46;28.65;;;17.55;;
59728;SDS011;45588;51.598;5.618;2023-04-28T06:22:12;24.73;;;16.33;;
59728;SDS011;45588;51.598;5.618;2023-04-28T06:24:37;33.77;;;30.27;;
59728;SDS011;45588;51.598;5.618;2023-04-28T06:27:02;32.35;;;28.85;;
59728;SDS011;45588;51.598;5.618;2023-04-28T06:29:27;32.00;;;28.70;;
59728;SDS011;45588;51.598;5.618;2023-04-28T06:31:52;34.70;;;29.03;;
59728;SDS011;45588;51.598;5.618;2023-04-28T06:34:21;26.15;;;15.68;;
59728;SDS011;45588;51.598;5.618;2023-04-28T06:36:46;27.83;;;15.85;;
59728;SDS011;45588;51.598;5.618;2023-04-28T06:39:11;33.13;;;28.73;;
59728;SDS011;45588;51.598;5.618;2023-04-28T06:41:37;30.08;;;16.42;;
59728;SDS011;45588;51.598;5.618;2023-04-28T06:44:02;24.77;;;16.93;;
59728;SDS011;45588;51.598;5.618;2023-04-28T06:46:27;27.58;;;16.77;;
59728;SDS011;45588;51.598;5.618;2023-04-28T06:48:52;31.33;;;15.50;;
59728;SDS011;45588;51.598;5.618;2023-04-28T06:51:18;32.60;;;27.37;;
59728;SDS011;45588;51.598;5.618;2023-04-28T06:53:43;29.63;;;15.87;;
59728;SDS011;45588;51.598;5.618;2023-04-28T06:56:08;34.73;;;27.87;;
59728;SDS011;45588;51.598;5.618;2023-04-28T06:58:33;23.42;;;15.60;;
59728;SDS011;45588;51.598;5.618;2023-04-28T07:00:59;23.08;;;14.77;;
59728;SDS011;45588;51.598;5.618;2023-04-28T07:03:25;29.30;;;26.20;;
59728;SDS011;45588;51.598;5.618;2023-04-28T07:05:50;29.05;;;25.92;;
59728;SDS011;45588;51.598;5.618;2023-04-28T07:08:15;28.13;;;25.33;;
59728;SDS011;45588;51.598;5.618;2023-04-28T07:10:41;27.70;;;25.08;;
59728;SDS011;45588;51.598;5.618;2023-04-28T07:13:07;28.17;;;25.42;;
59728;SDS011;45588;51.598;5.618;2023-04-28T07:15:32;27.33;;;24.40;;
59728;SDS011;45588;51.598;5.618;2023-04-28T07:17:57;28.50;;;25.45;;
59728;SDS011;45588;51.598;5.618;2023-04-28T07:20:22;27.43;;;24.00;;
59728;SDS011;45588;51.598;5.618;2023-04-28T07:22:48;24.53;;;16.03;;
59728;SDS011;45588;51.598;5.618;2023-04-28T07:25:13;21.37;;;14.17;;
59728;SDS011;45588;51.598;5.618;2023-04-28T07:27:38;26.98;;;24.17;;
59728;SDS011;45588;51.598;5.618;2023-04-28T07:30:03;26.70;;;24.00;;
59728;SDS011;45588;51.598;5.618;2023-04-28T07:32:29;24.60;;;15.38;;
59728;SDS011;45588;51.598;5.618;2023-04-28T07:34:54;22.02;;;14.05;;
59728;SDS011;45588;51.598;5.618;2023-04-28T07:37:19;26.17;;;22.83;;
59728;SDS011;45588;51.598;5.618;2023-04-28T07:39:45;27.60;;;23.00;;
59728;SDS011;45588;51.598;5.618;2023-04-28T07:42:10;25.48;;;22.88;;
59728;SDS011;45588;51.598;5.618;2023-04-28T07:44:35;24.30;;;21.83;;
59728;SDS011;45588;51.598;5.618;2023-04-28T07:47:00;24.10;;;21.77;;
59728;SDS011;45588;51.598;5.618;2023-04-28T07:49:29;25.40;;;22.85;;
59728;SDS011;45588;51.598;5.618;2023-04-28T07:51:54;26.08;;;22.27;;
59728;SDS011;45588;51.598;5.618;2023-04-28T07:54:21;24.85;;;22.25;;
59728;SDS011;45588;51.598;5.618;2023-04-28T07:56:47;23.50;;;14.38;;
59728;SDS011;45588;51.598;5.618;2023-04-28T07:59:12;27.33;;;22.13;;
59728;SDS011;45588;51.598;5.618;2023-04-28T08:01:37;24.42;;;21.80;;
59728;SDS011;45588;51.598;5.618;2023-04-28T08:04:02;23.60;;;21.07;;
59728;SDS011;45588;51.598;5.618;2023-04-28T08:06:28;24.10;;;21.23;;
59728;SDS011;45588;51.598;5.618;2023-04-28T08:08:53;24.02;;;21.05;;
59728;SDS011;45588;51.598;5.618;2023-04-28T08:11:18;16.30;;;11.98;;
59728;SDS011;45588;51.598;5.618;2023-04-28T08:13:43;24.33;;;21.70;;
59728;SDS011;45588;51.598;5.618;2023-04-28T08:16:09;23.30;;;20.80;;
59728;SDS011;45588;51.598;5.618;2023-04-28T08:18:34;22.43;;;20.10;;
59728;SDS011;45588;51.598;5.618;2023-04-28T08:20:59;22.33;;;20.03;;
59728;SDS011;45588;51.598;5.618;2023-04-28T08:23:24;24.52;;;22.00;;
59728;SDS011;45588;51.598;5.618;2023-04-28T08:25:52;18.73;;;12.35;;
59728;SDS011;45588;51.598;5.618;2023-04-28T08:28:17;24.45;;;21.85;;
59728;SDS011;45588;51.598;5.618;2023-04-28T08:30:42;24.47;;;22.23;;
59728;SDS011;45588;51.598;5.618;2023-04-28T08:33:08;24.90;;;22.60;;
59728;SDS011;45588;51.598;5.618;2023-04-28T08:35:33;25.57;;;23.03;;
59728;SDS011;45588;51.598;5.618;2023-04-28T08:37:58;26.50;;;23.90;;
59728;SDS011;45588;51.598;5.618;2023-04-28T08:40:23;26.08;;;23.35;;
59728;SDS011;45588;51.598;5.618;2023-04-28T08:42:50;26.48;;;23.65;;
59728;SDS011;45588;51.598;5.618;2023-04-28T08:45:16;18.45;;;13.50;;
59728;SDS011;45588;51.598;5.618;2023-04-28T08:47:41;17.90;;;12.90;;
59728;SDS011;45588;51.598;5.618;2023-04-28T08:50:10;28.48;;;25.67;;
59728;SDS011;45588;51.598;5.618;2023-04-28T08:52:36;27.42;;;24.63;;
59728;SDS011;45588;51.598;5.618;2023-04-28T08:55:08;28.88;;;26.17;;
59728;SDS011;45588;51.598;5.618;2023-04-28T08:57:43;27.65;;;25.10;;
59728;SDS011;45588;51.598;5.618;2023-04-28T09:00:09;25.98;;;23.48;;
59728;SDS011;45588;51.598;5.618;2023-04-28T09:02:35;26.05;;;23.52;;
59728;SDS011;45588;51.598;5.618;2023-04-28T09:05:02;24.10;;;21.10;;
59728;SDS011;45588;51.598;5.618;2023-04-28T09:07:28;25.55;;;22.85;;
59728;SDS011;45588;51.598;5.618;2023-04-28T09:12:37;26.40;;;23.52;;
59728;SDS011;45588;51.598;5.618;2023-04-28T09:15:02;19.53;;;13.80;;
59728;SDS011;45588;51.598;5.618;2023-04-28T09:17:33;19.20;;;14.55;;
59728;SDS011;45588;51.598;5.618;2023-04-28T09:20:20;26.15;;;23.67;;
59728;SDS011;45588;51.598;5.618;2023-04-28T09:22:46;26.45;;;23.90;;
59728;SDS011;45588;51.598;5.618;2023-04-28T09:25:11;29.50;;;24.43;;
59728;SDS011;45588;51.598;5.618;2023-04-28T09:27:37;27.10;;;24.58;;
59728;SDS011;45588;51.598;5.618;2023-04-28T09:30:02;27.27;;;24.77;;
59728;SDS011;45588;51.598;5.618;2023-04-28T09:32:28;26.75;;;24.25;;
59728;SDS011;45588;51.598;5.618;2023-04-28T09:34:54;27.80;;;24.98;;
59728;SDS011;45588;51.598;5.618;2023-04-28T09:37:24;28.77;;;26.00;;
59728;SDS011;45588;51.598;5.618;2023-04-28T09:39:50;31.65;;;26.17;;
59728;SDS011;45588;51.598;5.618;2023-04-28T09:45:00;27.52;;;24.92;;
59728;SDS011;45588;51.598;5.618;2023-04-28T09:47:27;28.33;;;25.65;;
59728;SDS011;45588;51.598;5.618;2023-04-28T09:49:55;27.23;;;24.38;;
59728;SDS011;45588;51.598;5.618;2023-04-28T09:52:22;29.35;;;26.33;;
59728;SDS011;45588;51.598;5.618;2023-04-28T09:54:51;28.33;;;25.52;;
59728;SDS011;45588;51.598;5.618;2023-04-28T09:57:16;27.65;;;25.02;;
59728;SDS011;45588;51.598;5.618;2023-04-28T09:59:51;28.30;;;25.48;;
59728;SDS011;45588;51.598;5.618;2023-04-28T10:02:17;28.40;;;25.60;;
59728;SDS011;45588;51.598;5.618;2023-04-28T10:04:48;23.58;;;14.93;;
59728;SDS011;45588;51.598;5.618;2023-04-28T10:07:15;29.40;;;26.58;;
59728;SDS011;45588;51.598;5.618;2023-04-28T10:09:40;26.83;;;23.90;;
59728;SDS011;45588;51.598;5.618;2023-04-28T10:12:12;29.88;;;26.98;;
59728;SDS011;45588;51.598;5.618;2023-04-28T10:14:38;30.80;;;27.55;;
59728;SDS011;45588;51.598;5.618;2023-04-28T10:17:03;31.42;;;28.15;;
59728;SDS011;45588;51.598;5.618;2023-04-28T10:19:30;32.45;;;29.15;;
59728;SDS011;45588;51.598;5.618;2023-04-28T10:22:16;30.58;;;27.50;;
59728;SDS011;45588;51.598;5.618;2023-04-28T10:27:29;28.80;;;25.90;;
59728;SDS011;45588;51.598;5.618;2023-04-28T10:30:08;30.55;;;27.20;;
59728;SDS011;45588;51.598;5.618;2023-04-28T10:32:33;31.52;;;28.23;;
59728;SDS011;45588;51.598;5.618;2023-04-28T10:42:58;32.45;;;29.25;;
59728;SDS011;45588;51.598;5.618;2023-04-28T10:48:07;39.42;;;35.70;;
59728;SDS011;45588;51.598;5.618;2023-04-28T10:50:32;40.43;;;36.30;;
59728;SDS011;45588;51.598;5.618;2023-04-28T10:52:57;41.03;;;36.75;;
59728;SDS011;45588;51.598;5.618;2023-04-28T11:00:44;57.40;;;50.88;;
59728;SDS011;45588;51.598;5.618;2023-04-28T11:08:39;60.80;;;53.63;;
59728;SDS011;45588;51.598;5.618;2023-04-28T11:13:42;61.20;;;54.45;;
59728;SDS011;45588;51.598;5.618;2023-04-28T11:16:10;58.53;;;52.22;;
59728;SDS011;45588;51.598;5.618;2023-04-28T11:18:47;55.88;;;45.58;;
59728;SDS011;45588;51.598;5.618;2023-04-28T11:21:13;59.90;;;53.55;;
59728;SDS011;45588;51.598;5.618;2023-04-28T11:23:38;61.78;;;55.20;;
59728;SDS011;45588;51.598;5.618;2023-04-28T11:26:04;58.95;;;52.72;;
59728;SDS011;45588;51.598;5.618;2023-04-28T11:28:29;54.37;;;48.73;;
59728;SDS011;45588;51.598;5.618;2023-04-28T11:31:09;48.15;;;42.85;;
59728;SDS011;45588;51.598;5.618;2023-04-28T11:33:35;48.03;;;26.30;;
59728;SDS011;45588;51.598;5.618;2023-04-28T11:36:02;46.35;;;41.63;;
59728;SDS011;45588;51.598;5.618;2023-04-28T11:38:27;44.35;;;40.00;;
59728;SDS011;45588;51.598;5.618;2023-04-28T11:40:58;44.93;;;40.60;;
59728;SDS011;45588;51.598;5.618;2023-04-28T11:43:28;49.13;;;43.97;;
59728;SDS011;45588;51.598;5.618;2023-04-28T11:45:53;45.28;;;40.80;;
59728;SDS011;45588;51.598;5.618;2023-04-28T11:48:21;47.58;;;42.83;;
59728;SDS011;45588;51.598;5.618;2023-04-28T11:50:47;47.15;;;42.58;;
59728;SDS011;45588;51.598;5.618;2023-04-28T11:53:12;45.17;;;40.65;;
59728;SDS011;45588;51.598;5.618;2023-04-28T11:55:37;43.80;;;39.65;;
59728;SDS011;45588;51.598;5.618;2023-04-28T11:58:21;43.28;;;39.17;;
59728;SDS011;45588;51.598;5.618;2023-04-28T12:01:07;43.72;;;39.47;;
59728;SDS011;45588;51.598;5.618;2023-04-28T12:03:32;42.05;;;38.08;;
59728;SDS011;45588;51.598;5.618;2023-04-28T12:05:57;43.67;;;39.38;;
59728;SDS011;45588;51.598;5.618;2023-04-28T12:08:28;42.67;;;38.67;;
59728;SDS011;45588;51.598;5.618;2023-04-28T12:11:06;45.95;;;41.47;;
59728;SDS011;45588;51.598;5.618;2023-04-28T12:13:33;45.65;;;41.03;;
59728;SDS011;45588;51.598;5.618;2023-04-28T12:16:00;47.92;;;43.15;;
59728;SDS011;45588;51.598;5.618;2023-04-28T12:18:25;49.25;;;44.22;;
59728;SDS011;45588;51.598;5.618;2023-04-28T12:20:51;74.72;;;54.50;;
59728;SDS011;45588;51.598;5.618;2023-04-28T12:23:27;55.33;;;49.33;;
59728;SDS011;45588;51.598;5.618;2023-04-28T12:25:52;48.72;;;43.75;;
59728;SDS011;45588;51.598;5.618;2023-04-28T12:28:17;51.50;;;46.20;;
59728;SDS011;45588;51.598;5.618;2023-04-28T12:30:42;46.83;;;42.00;;
59728;SDS011;45588;51.598;5.618;2023-04-28T12:33:26;47.63;;;42.70;;
59728;SDS011;45588;51.598;5.618;2023-04-28T12:35:53;47.58;;;42.63;;
59728;SDS011;45588;51.598;5.618;2023-04-28T12:38:19;42.13;;;37.22;;
59728;SDS011;45588;51.598;5.618;2023-04-28T12:40:45;45.10;;;40.57;;
59728;SDS011;45588;51.598;5.618;2023-04-28T12:43:10;41.88;;;37.85;;
59728;SDS011;45588;51.598;5.618;2023-04-28T12:45:36;42.90;;;38.63;;
59728;SDS011;45588;51.598;5.618;2023-04-28T12:48:01;42.72;;;38.65;;
59728;SDS011;45588;51.598;5.618;2023-04-28T12:50:26;43.40;;;39.00;;
59728;SDS011;45588;51.598;5.618;2023-04-28T12:52:53;39.95;;;35.72;;
59728;SDS011;45588;51.598;5.618;2023-04-28T12:55:20;38.05;;;34.15;;
59728;SDS011;45588;51.598;5.618;2023-04-28T12:57:45;20.52;;;18.38;;
59728;SDS011;45588;51.598;5.618;2023-04-28T13:00:10;11.63;;;10.55;;
59728;SDS011;45588;51.598;5.618;2023-04-28T13:02:38;9.65;;;8.57;;
59728;SDS011;45588;51.598;5.618;2023-04-28T13:05:04;8.93;;;8.20;;
59728;SDS011;45588;51.598;5.618;2023-04-28T13:07:29;8.45;;;7.65;;
59728;SDS011;45588;51.598;5.618;2023-04-28T13:09:54;8.80;;;8.00;;
59728;SDS011;45588;51.598;5.618;2023-04-28T13:12:19;7.35;;;6.75;;
59728;SDS011;45588;51.598;5.618;2023-04-28T13:14:44;8.70;;;7.90;;
59728;SDS011;45588;51.598;5.618;2023-04-28T13:17:10;8.10;;;7.45;;
59728;SDS011;45588;51.598;5.618;2023-04-28T13:19:36;6.70;;;6.03;;
59728;SDS011;45588;51.598;5.618;2023-04-28T13:22:01;10.23;;;9.43;;
59728;SDS011;45588;51.598;5.618;2023-04-28T13:24:29;10.48;;;6.40;;
59728;SDS011;45588;51.598;5.618;2023-04-28T13:26:54;12.90;;;11.70;;
59728;SDS011;45588;51.598;5.618;2023-04-28T13:29:19;9.67;;;6.83;;
59728;SDS011;45588;51.598;5.618;2023-04-28T13:31:44;14.80;;;13.50;;
59728;SDS011;45588;51.598;5.618;2023-04-28T13:34:10;14.65;;;13.20;;
59728;SDS011;45588;51.598;5.618;2023-04-28T13:36:40;15.63;;;14.02;;
59728;SDS011;45588;51.598;5.618;2023-04-28T13:39:05;14.50;;;13.18;;
59728;SDS011;45588;51.598;5.618;2023-04-28T13:41:30;13.90;;;12.63;;
59728;SDS011;45588;51.598;5.618;2023-04-28T13:43:55;14.83;;;13.30;;
59728;SDS011;45588;51.598;5.618;2023-04-28T13:46:20;14.50;;;13.15;;
59728;SDS011;45588;51.598;5.618;2023-04-28T13:48:46;15.95;;;14.20;;
59728;SDS011;45588;51.598;5.618;2023-04-28T13:51:11;13.07;;;11.67;;
59728;SDS011;45588;51.598;5.618;2023-04-28T13:53:37;11.27;;;10.13;;
59728;SDS011;45588;51.598;5.618;2023-04-28T13:56:03;12.10;;;11.10;;
59728;SDS011;45588;51.598;5.618;2023-04-28T13:58:28;11.85;;;10.75;;
59728;SDS011;45588;51.598;5.618;2023-04-28T14:00:54;12.15;;;10.95;;
59728;SDS011;45588;51.598;5.618;2023-04-28T14:03:19;11.23;;;10.23;;
59728;SDS011;45588;51.598;5.618;2023-04-28T14:05:51;10.45;;;9.45;;
59728;SDS011;45588;51.598;5.618;2023-04-28T14:08:17;11.15;;;6.25;;
59728;SDS011;45588;51.598;5.618;2023-04-28T14:10:42;11.35;;;10.32;;
59728;SDS011;45588;51.598;5.618;2023-04-28T14:13:07;11.18;;;10.18;;
59728;SDS011;45588;51.598;5.618;2023-04-28T14:15:33;13.60;;;12.35;;
59728;SDS011;45588;51.598;5.618;2023-04-28T14:17:58;11.33;;;10.30;;
59728;SDS011;45588;51.598;5.618;2023-04-28T14:20:23;11.18;;;10.18;;
59728;SDS011;45588;51.598;5.618;2023-04-28T14:22:48;11.52;;;10.57;;
59728;SDS011;45588;51.598;5.618;2023-04-28T14:25:13;11.10;;;10.10;;
59728;SDS011;45588;51.598;5.618;2023-04-28T14:27:39;10.45;;;9.10;;
59728;SDS011;45588;51.598;5.618;2023-04-28T14:30:04;10.48;;;9.45;;
59728;SDS011;45588;51.598;5.618;2023-04-28T14:32:30;10.70;;;9.75;;
59728;SDS011;45588;51.598;5.618;2023-04-28T14:34:55;10.10;;;9.20;;
59728;SDS011;45588;51.598;5.618;2023-04-28T14:37:20;12.37;;;10.47;;
59728;SDS011;45588;51.598;5.618;2023-04-28T14:39:45;11.77;;;10.60;;
59728;SDS011;45588;51.598;5.618;2023-04-28T14:42:10;12.23;;;10.95;;
59728;SDS011;45588;51.598;5.618;2023-04-28T14:44:36;9.87;;;8.87;;
59728;SDS011;45588;51.598;5.618;2023-04-28T14:47:01;10.57;;;9.68;;
59728;SDS011;45588;51.598;5.618;2023-04-28T14:49:27;10.38;;;9.38;;
59728;SDS011;45588;51.598;5.618;2023-04-28T14:51:52;16.23;;;9.73;;